Time;durP1;ratioP1;P1;durP2;ratioP2;P2;SDS_P1;SDS_P2;PMS_P1;PMS_P2;Temp;Humidity;BMP_temperature;BMP_pressure;BME280_temperature;BME280_humidity;BME280_pressure;Samples;Min_cycle;Max_cycle;Signal;HPM_P1;HPM_P2
2023/08/25 00:00:09;;;;;;;11.38;2.92;;;20.30;99.90;;;;;;5113547;28;20445;-74
2023/08/25 00:02:36;;;;;;;10.48;2.63;;;20.40;99.90;;;;;;5113543;28;20053;-74
2023/08/25 00:05:03;;;;;;;9.43;3.00;;;20.40;99.90;;;;;;5114353;28;20361;-75
2023/08/25 00:07:29;;;;;;;8.07;2.60;;;20.40;99.90;;;;;;5117924;28;20050;-75
2023/08/25 00:09:55;;;;;;;10.55;2.75;;;20.40;99.90;;;;;;5117484;28;20527;-74
2023/08/25 00:12:20;;;;;;;7.53;2.70;;;20.40;99.90;;;;;;5117438;28;20031;-75
2023/08/25 00:14:46;;;;;;;6.32;2.25;;;20.40;99.90;;;;;;5117466;28;20059;-75
2023/08/25 00:17:12;;;;;;;6.30;2.53;;;20.50;99.90;;;;;;5117282;28;20028;-75
2023/08/25 00:19:38;;;;;;;9.73;2.80;;;20.50;99.90;;;;;;5117098;28;20476;-75
2023/08/25 00:22:04;;;;;;;6.95;2.88;;;20.50;99.90;;;;;;5117085;28;20023;-74
2023/08/25 00:24:32;;;;;;;10.15;2.80;;;20.50;99.90;;;;;;5099391;28;20164;-74
2023/08/25 00:26:59;;;;;;;9.23;3.20;;;20.40;99.90;;;;;;5099430;28;20024;-74
2023/08/25 00:29:24;;;;;;;9.30;2.92;;;20.30;99.90;;;;;;5117156;28;20115;-75
2023/08/25 00:31:51;;;;;;;7.57;2.60;;;20.30;99.90;;;;;;5098705;28;20169;-74
2023/08/25 00:34:17;;;;;;;10.27;2.65;;;20.30;99.90;;;;;;5116885;28;20484;-75
2023/08/25 00:36:42;;;;;;;10.90;3.20;;;20.30;99.90;;;;;;5116984;28;20105;-74
2023/08/25 00:39:08;;;;;;;9.80;2.78;;;20.40;99.90;;;;;;5098611;28;20051;-74
2023/08/25 00:41:33;;;;;;;11.45;2.78;;;20.40;99.90;;;;;;5116728;28;20053;-75
2023/08/25 00:43:59;;;;;;;8.88;3.10;;;20.40;99.90;;;;;;5116880;28;20108;-75
2023/08/25 00:46:25;;;;;;;6.97;2.40;;;20.30;99.90;;;;;;5116590;28;20036;-75
2023/08/25 00:48:51;;;;;;;6.93;2.75;;;20.30;99.90;;;;;;5098456;28;20031;-75
2023/08/25 00:51:17;;;;;;;6.97;2.50;;;20.30;99.90;;;;;;5116694;28;20028;-75
2023/08/25 00:53:45;;;;;;;10.02;2.60;;;20.30;99.90;;;;;;5116323;28;20521;-75
2023/08/25 00:56:13;;;;;;;7.50;3.00;;;20.20;99.90;;;;;;5116417;28;20038;-74
2023/08/25 00:58:40;;;;;;;8.70;2.47;;;20.10;99.90;;;;;;5116669;28;20468;-75
2023/08/25 01:01:06;;;;;;;9.23;2.55;;;20.10;99.90;;;;;;5116491;28;20392;-75
2023/08/25 01:03:33;;;;;;;10.10;2.72;;;20.10;99.90;;;;;;5115399;28;20024;-75
2023/08/25 01:06:00;;;;;;;7.72;3.00;;;20.10;99.90;;;;;;5098126;28;20071;-75
2023/08/25 01:08:25;;;;;;;12.10;3.78;;;20.10;99.90;;;;;;5115439;28;20483;-76
2023/08/25 01:10:55;;;;;;;7.75;2.60;;;20.10;99.90;;;;;;5088499;28;20114;-75
2023/08/25 01:13:31;;;;;;;10.25;2.65;;;20.10;99.90;;;;;;5095926;28;20024;-75
2023/08/25 01:15:57;;;;;;;8.98;2.75;;;20.10;99.90;;;;;;5101272;28;20031;-75
2023/08/25 01:18:30;;;;;;;8.15;2.42;;;20.00;99.90;;;;;;5115295;28;20024;-75
2023/08/25 01:20:58;;;;;;;7.75;2.75;;;20.00;99.90;;;;;;5103268;28;20024;-74
2023/08/25 01:23:37;;;;;;;8.57;2.65;;;19.90;99.90;;;;;;5115359;28;20023;-74
2023/08/25 01:26:04;;;;;;;8.85;2.70;;;19.80;99.90;;;;;;5115081;28;20023;-74
2023/08/25 01:28:29;;;;;;;6.93;2.17;;;19.80;99.90;;;;;;5115220;28;20028;-75
2023/08/25 01:30:58;;;;;;;7.82;2.90;;;19.90;99.90;;;;;;5114810;28;20043;-75
2023/08/25 01:33:26;;;;;;;8.32;2.67;;;19.90;99.90;;;;;;5109635;28;20484;-74
2023/08/25 01:35:57;;;;;;;8.35;2.72;;;20.00;99.90;;;;;;5077241;28;20093;-75
2023/08/25 01:38:54;;;;;;;8.07;2.50;;;20.00;99.90;;;;;;5095396;28;20365;-74
2023/08/25 01:41:45;;;;;;;5.63;2.22;;;20.00;99.90;;;;;;5093492;28;20110;-75
2023/08/25 01:44:14;;;;;;;10.05;2.40;;;20.00;99.90;;;;;;5076305;28;20058;-75
2023/08/25 01:46:44;;;;;;;5.45;2.45;;;20.00;99.90;;;;;;5094444;28;20020;-75
2023/08/25 01:49:11;;;;;;;8.52;2.90;;;19.90;99.90;;;;;;5094230;28;20028;-74
2023/08/25 01:51:38;;;;;;;10.52;3.05;;;19.90;99.90;;;;;;5094878;28;20401;-74
2023/08/25 01:54:04;;;;;;;7.38;2.63;;;19.70;99.90;;;;;;5094791;28;20024;-74
2023/08/25 01:56:29;;;;;;;11.80;3.08;;;19.60;99.90;;;;;;5094849;28;20392;-74
2023/08/25 01:58:55;;;;;;;8.60;3.08;;;19.60;99.90;;;;;;5094847;28;20048;-74
2023/08/25 02:01:21;;;;;;;9.98;3.08;;;19.60;99.90;;;;;;5094731;28;20063;-74
2023/08/25 02:03:46;;;;;;;8.07;2.60;;;19.50;99.90;;;;;;5094793;28;20024;-74
2023/08/25 02:06:12;;;;;;;7.97;2.72;;;19.40;99.90;;;;;;5094758;28;20039;-74
2023/08/25 02:08:38;;;;;;;9.80;3.05;;;19.40;99.90;;;;;;5094644;28;20028;-74
2023/08/25 02:11:04;;;;;;;6.72;3.00;;;19.40;99.90;;;;;;5094502;28;20027;-74
2023/08/25 02:13:30;;;;;;;5.43;2.53;;;19.50;99.90;;;;;;5094568;28;20415;-74
2023/08/25 02:15:55;;;;;;;6.13;2.28;;;19.50;99.90;;;;;;5076282;28;20042;-74
2023/08/25 02:18:21;;;;;;;9.13;2.80;;;19.60;99.90;;;;;;5094689;28;20111;-74
2023/08/25 02:20:47;;;;;;;7.88;2.50;;;19.60;99.90;;;;;;5094350;28;20530;-74
2023/08/25 02:23:13;;;;;;;7.35;2.45;;;19.50;99.90;;;;;;5094639;28;20044;-74
2023/08/25 02:25:38;;;;;;;5.40;2.00;;;19.50;99.90;;;;;;5076359;28;20031;-74
2023/08/25 02:28:04;;;;;;;7.30;2.90;;;19.50;99.90;;;;;;5094360;28;20053;-74
2023/08/25 02:30:30;;;;;;;5.75;2.35;;;19.50;99.90;;;;;;5094213;28;20063;-74
2023/08/25 02:32:58;;;;;;;7.45;2.35;;;19.50;99.90;;;;;;5076012;28;20024;-74
2023/08/25 02:35:23;;;;;;;6.18;2.53;;;19.60;99.90;;;;;;5094246;28;20027;-74
2023/08/25 02:38:15;;;;;;;7.72;2.78;;;19.60;99.90;;;;;;5094114;28;20392;-74
2023/08/25 02:40:41;;;;;;;6.28;3.15;;;19.60;99.90;;;;;;5089625;28;20089;-74
2023/08/25 02:43:07;;;;;;;9.98;2.78;;;19.50;99.90;;;;;;5094130;28;20388;-74
2023/08/25 02:45:34;;;;;;;7.80;2.95;;;19.50;99.90;;;;;;5093966;28;20031;-74
2023/08/25 02:48:00;;;;;;;7.35;2.65;;;19.50;99.90;;;;;;5093998;28;20469;-74
2023/08/25 02:50:25;;;;;;;7.53;2.20;;;19.50;99.90;;;;;;5108290;28;20035;-74
2023/08/25 02:52:52;;;;;;;6.85;2.13;;;19.50;99.90;;;;;;5114057;28;20035;-75
2023/08/25 02:55:20;;;;;;;6.85;2.75;;;19.50;99.90;;;;;;5096049;28;20055;-74
2023/08/25 02:57:47;;;;;;;10.23;2.80;;;19.40;99.90;;;;;;5114121;28;20467;-74
2023/08/25 03:00:16;;;;;;;11.30;3.20;;;19.40;99.90;;;;;;5114031;28;20492;-74
2023/08/25 03:02:42;;;;;;;8.07;2.70;;;19.30;99.90;;;;;;5114130;28;20020;-74
2023/08/25 03:05:11;;;;;;;4.63;1.70;;;19.30;99.90;;;;;;5114366;28;20024;-74
2023/08/25 03:07:36;;;;;;;7.00;2.53;;;19.30;99.90;;;;;;5114392;28;20123;-74
2023/08/25 03:10:02;;;;;;;8.07;2.30;;;19.30;99.90;;;;;;5114193;28;20051;-75
2023/08/25 03:12:28;;;;;;;7.40;2.00;;;19.30;99.90;;;;;;5095815;28;20456;-74
2023/08/25 03:14:55;;;;;;;6.05;1.92;;;19.30;99.90;;;;;;5114015;28;20027;-75
2023/08/25 03:17:21;;;;;;;9.07;2.47;;;19.30;99.90;;;;;;5114343;28;20027;-75
2023/08/25 03:19:47;;;;;;;4.65;2.03;;;19.20;99.90;;;;;;5113854;28;20076;-74
2023/08/25 03:22:13;;;;;;;7.43;2.10;;;19.10;99.90;;;;;;5114296;28;20028;-75
2023/08/25 03:24:39;;;;;;;5.15;2.20;;;19.10;99.90;;;;;;5114146;28;20483;-74
2023/08/25 03:27:04;;;;;;;10.93;2.47;;;19.10;99.90;;;;;;5095888;28;20027;-75
2023/08/25 03:29:31;;;;;;;9.40;2.33;;;19.10;99.90;;;;;;5095690;28;20039;-75
2023/08/25 03:31:58;;;;;;;6.93;2.40;;;19.00;99.90;;;;;;5119911;28;20035;-77
2023/08/25 03:34:23;;;;;;;9.30;3.13;;;18.90;99.90;;;;;;5097796;28;20078;-77
2023/08/25 03:36:49;;;;;;;7.10;2.80;;;18.80;99.90;;;;;;5097170;28;20460;-75
2023/08/25 03:39:15;;;;;;;8.15;2.30;;;18.80;99.90;;;;;;5113607;28;20028;-76
2023/08/25 03:41:41;;;;;;;7.22;2.67;;;18.80;99.90;;;;;;5117342;28;20383;-75
2023/08/25 03:44:06;;;;;;;8.40;2.50;;;18.90;99.90;;;;;;5117813;28;20092;-75
2023/08/25 03:46:32;;;;;;;10.55;3.85;;;18.90;99.90;;;;;;5099818;28;20373;-75
2023/08/25 03:48:58;;;;;;;8.93;2.58;;;19.00;99.90;;;;;;5117834;28;20094;-76
2023/08/25 03:51:24;;;;;;;12.30;2.85;;;19.00;99.90;;;;;;5118312;28;20481;-75
2023/08/25 03:53:50;;;;;;;8.77;2.33;;;19.00;99.90;;;;;;5118206;28;20031;-75
2023/08/25 03:56:15;;;;;;;7.13;2.25;;;19.00;99.90;;;;;;5117642;28;20585;-76
2023/08/25 03:58:41;;;;;;;4.93;2.50;;;19.00;99.90;;;;;;5117546;28;20037;-75
2023/08/25 04:01:08;;;;;;;6.40;2.20;;;19.00;99.90;;;;;;5118704;28;20383;-75
2023/08/25 04:03:34;;;;;;;6.50;2.33;;;19.00;99.90;;;;;;5118305;28;20027;-76
2023/08/25 04:05:59;;;;;;;9.23;2.88;;;19.00;99.90;;;;;;5117817;28;20028;-75
2023/08/25 04:08:25;;;;;;;7.13;2.65;;;19.00;99.90;;;;;;5099292;28;20031;-75
2023/08/25 04:10:52;;;;;;;6.43;2.05;;;19.00;99.90;;;;;;5117288;28;20032;-74
2023/08/25 04:13:18;;;;;;;8.27;2.47;;;18.90;99.90;;;;;;5117685;28;20024;-75
2023/08/25 04:15:44;;;;;;;5.57;2.45;;;18.90;99.90;;;;;;5117807;28;20058;-75
2023/08/25 04:18:09;;;;;;;6.82;2.30;;;18.80;99.90;;;;;;5117244;28;20060;-75
2023/08/25 04:20:35;;;;;;;5.90;2.33;;;18.80;99.90;;;;;;5117080;28;20023;-75
2023/08/25 04:23:01;;;;;;;6.05;2.40;;;18.80;99.90;;;;;;5117171;28;20088;-75
2023/08/25 04:25:29;;;;;;;8.43;2.70;;;18.80;99.90;;;;;;5117596;28;20023;-75
2023/08/25 04:27:55;;;;;;;6.63;2.65;;;18.80;99.90;;;;;;5098885;28;20049;-74
2023/08/25 04:30:22;;;;;;;5.53;3.15;;;18.80;99.90;;;;;;5116902;28;20035;-75
2023/08/25 04:32:49;;;;;;;7.20;2.85;;;18.80;99.90;;;;;;5116967;28;20464;-74
2023/08/25 04:35:15;;;;;;;9.35;2.60;;;18.70;99.90;;;;;;5116870;28;20396;-74
2023/08/25 04:37:44;;;;;;;5.45;2.92;;;18.80;99.90;;;;;;5098672;28;20031;-74
2023/08/25 04:40:10;;;;;;;8.18;2.45;;;18.70;99.90;;;;;;5116043;28;20049;-75
2023/08/25 04:42:38;;;;;;;9.00;2.67;;;18.70;99.90;;;;;;5115394;28;20031;-75
2023/08/25 04:45:04;;;;;;;7.28;2.40;;;18.70;99.90;;;;;;5116257;28;20020;-74
2023/08/25 04:47:30;;;;;;;7.15;2.40;;;18.70;99.90;;;;;;5098597;28;20394;-74
2023/08/25 04:49:57;;;;;;;9.32;3.03;;;18.70;99.90;;;;;;5116780;28;20020;-74
2023/08/25 04:52:23;;;;;;;8.07;2.60;;;18.70;99.90;;;;;;5115362;28;20028;-74
2023/08/25 04:54:49;;;;;;;7.35;2.80;;;18.80;99.90;;;;;;5116402;28;20487;-74
2023/08/25 04:57:15;;;;;;;8.27;3.42;;;18.80;99.90;;;;;;5098043;28;20088;-74
2023/08/25 04:59:44;;;;;;;11.82;3.38;;;18.80;99.90;;;;;;5081331;28;20472;-74
2023/08/25 05:02:09;;;;;;;10.05;3.10;;;18.80;99.90;;;;;;5116487;28;20103;-74
2023/08/25 05:04:35;;;;;;;9.07;2.80;;;18.70;99.90;;;;;;5116375;28;20113;-74
2023/08/25 05:07:01;;;;;;;8.10;2.75;;;18.70;99.90;;;;;;5098091;28;20039;-74
2023/08/25 05:09:26;;;;;;;4.25;2.33;;;18.70;99.90;;;;;;5116504;28;20031;-74
2023/08/25 05:11:52;;;;;;;8.15;3.00;;;18.70;99.90;;;;;;5116262;28;20023;-74
2023/08/25 05:14:18;;;;;;;7.38;2.50;;;18.70;99.90;;;;;;5098072;28;20068;-74
2023/08/25 05:16:43;;;;;;;7.30;2.88;;;18.70;99.90;;;;;;5097838;28;20395;-74
2023/08/25 05:19:11;;;;;;;7.63;2.95;;;18.70;99.90;;;;;;5097775;28;20024;-74
2023/08/25 05:21:37;;;;;;;9.50;3.30;;;18.70;99.90;;;;;;5116304;28;20047;-74
2023/08/25 05:24:19;;;;;;;10.50;2.80;;;18.70;99.90;;;;;;5097626;28;20066;-74
2023/08/25 05:26:53;;;;;;;7.75;2.55;;;18.70;99.90;;;;;;5116086;28;20027;-74
2023/08/25 05:29:19;;;;;;;7.43;2.85;;;18.80;99.90;;;;;;5117253;28;20031;-74
2023/08/25 05:31:45;;;;;;;5.78;2.60;;;18.80;99.90;;;;;;5097687;28;20036;-74
2023/08/25 05:34:11;;;;;;;7.88;3.20;;;18.90;99.90;;;;;;5098326;28;20027;-74
2023/08/25 05:36:37;;;;;;;6.13;2.65;;;18.90;99.90;;;;;;5115706;28;20023;-74
2023/08/25 05:39:03;;;;;;;6.90;2.58;;;18.90;99.90;;;;;;5097311;28;20161;-74
2023/08/25 05:41:28;;;;;;;6.40;2.20;;;19.00;99.90;;;;;;5115488;28;20047;-75
2023/08/25 05:43:54;;;;;;;6.63;3.10;;;18.90;99.90;;;;;;5115842;28;20032;-75
2023/08/25 05:46:20;;;;;;;9.43;2.75;;;19.00;99.90;;;;;;5115856;28;20035;-77
2023/08/25 05:48:45;;;;;;;7.75;2.50;;;18.90;99.90;;;;;;5116708;28;20541;-77
2023/08/25 05:51:11;;;;;;;5.95;2.05;;;19.00;99.90;;;;;;5097786;28;20031;-77
2023/08/25 05:53:37;;;;;;;9.15;2.40;;;19.00;99.90;;;;;;5097199;28;20039;-77
2023/08/25 05:56:02;;;;;;;5.10;2.40;;;19.00;99.90;;;;;;5095970;28;20024;-76
2023/08/25 05:58:28;;;;;;;5.57;2.40;;;19.10;99.90;;;;;;5095643;28;20104;-77
2023/08/25 06:00:55;;;;;;;6.20;2.28;;;19.10;99.90;;;;;;5096168;28;20435;-77
2023/08/25 06:03:21;;;;;;;5.97;2.67;;;19.10;99.90;;;;;;5079963;28;20032;-77
2023/08/25 06:05:48;;;;;;;6.75;2.78;;;19.20;99.90;;;;;;5080207;28;20034;-77
2023/08/25 06:08:14;;;;;;;7.22;2.83;;;19.20;99.90;;;;;;5116111;28;20023;-78
2023/08/25 06:10:39;;;;;;;10.15;3.35;;;19.20;99.90;;;;;;5115931;28;20028;-78
2023/08/25 06:13:05;;;;;;;6.82;2.88;;;19.20;99.90;;;;;;5097460;28;20027;-78
2023/08/25 06:15:31;;;;;;;4.82;2.00;;;19.20;99.90;;;;;;5097609;28;20096;-78
2023/08/25 06:17:57;;;;;;;4.07;2.15;;;19.30;99.90;;;;;;5115218;28;20173;-78
2023/08/25 06:20:25;;;;;;;6.50;2.42;;;19.30;99.90;;;;;;5115669;28;20024;-77
2023/08/25 06:22:51;;;;;;;8.65;2.53;;;19.30;99.90;;;;;;5097042;28;20015;-78
2023/08/25 06:25:17;;;;;;;8.50;2.95;;;19.30;99.90;;;;;;5096921;28;20024;-78
2023/08/25 06:27:42;;;;;;;10.05;2.92;;;19.30;99.90;;;;;;5080321;28;20034;-77
2023/08/25 06:30:08;;;;;;;8.48;2.20;;;19.20;99.90;;;;;;5080661;28;20437;-77
2023/08/25 06:32:34;;;;;;;8.13;2.72;;;19.30;99.90;;;;;;5097109;28;20549;-77
2023/08/25 06:34:59;;;;;;;4.78;2.50;;;19.30;99.90;;;;;;5115855;28;20027;-77
2023/08/25 06:37:25;;;;;;;7.82;2.92;;;19.30;99.90;;;;;;5115575;28;20528;-77
2023/08/25 06:39:51;;;;;;;6.30;2.25;;;19.40;99.90;;;;;;5115279;28;20023;-77
2023/08/25 06:42:17;;;;;;;9.75;2.47;;;19.50;99.90;;;;;;5097116;28;20024;-77
2023/08/25 06:44:43;;;;;;;8.50;3.15;;;19.60;99.90;;;;;;5097269;28;20050;-77
2023/08/25 06:47:09;;;;;;;6.75;2.55;;;19.70;99.90;;;;;;5115343;28;20538;-77
2023/08/25 06:49:35;;;;;;;7.18;3.17;;;19.80;99.90;;;;;;5114949;28;20028;-77
2023/08/25 06:52:00;;;;;;;7.40;2.83;;;19.80;99.90;;;;;;5097500;28;20039;-77
2023/08/25 06:54:26;;;;;;;10.02;3.35;;;20.00;99.90;;;;;;5080311;28;20491;-76
2023/08/25 06:56:52;;;;;;;8.00;3.00;;;20.10;99.90;;;;;;5095883;28;20038;-76
2023/08/25 06:59:18;;;;;;;7.65;3.22;;;20.30;99.90;;;;;;5095848;28;20102;-76
2023/08/25 07:01:44;;;;;;;11.35;3.33;;;20.30;99.90;;;;;;5114197;28;20048;-76
2023/08/25 07:04:10;;;;;;;7.35;3.08;;;20.30;99.90;;;;;;5114103;28;20494;-76
2023/08/25 07:06:36;;;;;;;10.90;2.78;;;20.40;99.90;;;;;;5096014;28;20027;-77
2023/08/25 07:09:06;;;;;;;10.05;3.38;;;20.30;99.90;;;;;;5096346;28;20057;-75
2023/08/25 07:11:32;;;;;;;6.15;2.88;;;20.30;99.90;;;;;;5113989;28;20081;-75
2023/08/25 07:13:58;;;;;;;8.77;3.20;;;20.30;99.90;;;;;;5095754;28;20438;-76
2023/08/25 07:16:25;;;;;;;8.40;3.03;;;20.40;99.90;;;;;;5095076;28;20027;-76
2023/08/25 07:18:51;;;;;;;6.05;2.80;;;20.50;99.90;;;;;;5114371;28;20468;-76
2023/08/25 07:21:16;;;;;;;6.05;3.30;;;20.60;99.90;;;;;;5113968;28;20028;-76
2023/08/25 07:23:42;;;;;;;7.78;2.85;;;20.80;99.90;;;;;;5062095;28;20111;-76
2023/08/25 07:26:09;;;;;;;8.25;3.42;;;21.00;99.90;;;;;;5062846;28;20024;-77
2023/08/25 07:28:34;;;;;;;7.22;2.47;;;21.00;99.90;;;;;;5119105;28;20027;-78
2023/08/25 07:31:00;;;;;;;6.63;2.80;;;21.20;99.90;;;;;;5100564;28;20031;-77
2023/08/25 07:33:26;;;;;;;4.50;2.08;;;21.30;99.90;;;;;;5080213;28;20032;-79
2023/08/25 07:35:53;;;;;;;5.78;2.38;;;21.40;99.90;;;;;;5113667;28;20028;-76
2023/08/25 07:38:19;;;;;;;7.05;2.17;;;21.50;99.90;;;;;;5095549;28;20020;-76
2023/08/25 07:40:45;;;;;;;6.82;2.42;;;21.60;99.90;;;;;;5095610;28;20026;-76
2023/08/25 07:43:10;;;;;;;7.53;2.60;;;21.80;99.90;;;;;;5113941;28;20031;-76
2023/08/25 07:45:36;;;;;;;4.43;2.20;;;21.90;99.90;;;;;;5113978;28;20077;-76
2023/08/25 07:48:02;;;;;;;3.95;1.95;;;22.00;99.90;;;;;;5095942;28;20424;-76
2023/08/25 07:50:30;;;;;;;6.70;2.80;;;22.00;99.90;;;;;;5113892;28;20062;-76
2023/08/25 07:52:57;;;;;;;6.47;2.53;;;22.00;99.90;;;;;;5095564;28;20201;-76
2023/08/25 07:55:23;;;;;;;7.20;2.55;;;22.00;99.90;;;;;;5114032;28;20020;-76
2023/08/25 07:57:48;;;;;;;5.28;2.40;;;22.00;99.90;;;;;;5095372;28;20169;-76
2023/08/25 08:00:16;;;;;;;5.57;2.45;;;22.00;99.90;;;;;;5113878;28;20102;-76
2023/08/25 08:02:45;;;;;;;5.60;2.40;;;22.10;99.90;;;;;;5113675;28;20030;-76
2023/08/25 08:05:12;;;;;;;5.68;2.33;;;22.10;99.90;;;;;;5095400;28;20114;-76
2023/08/25 08:07:38;;;;;;;10.15;2.50;;;22.30;99.90;;;;;;5113525;28;20387;-76
2023/08/25 08:10:05;;;;;;;8.80;3.08;;;22.30;99.90;;;;;;5078713;28;20044;-76
2023/08/25 08:12:31;;;;;;;7.32;2.40;;;22.50;99.90;;;;;;5095464;28;20027;-76
2023/08/25 08:14:56;;;;;;;5.13;2.40;;;22.70;99.90;;;;;;5113878;28;20028;-76
2023/08/25 08:17:22;;;;;;;6.18;2.70;;;22.90;99.90;;;;;;5095818;28;20037;-76
2023/08/25 08:19:48;;;;;;;7.78;2.85;;;23.00;99.90;;;;;;5114109;28;20430;-76
2023/08/25 08:22:14;;;;;;;5.00;2.65;;;23.20;99.90;;;;;;5114215;28;20054;-76
2023/08/25 08:24:46;;;;;;;6.47;2.42;;;23.40;99.90;;;;;;5095868;28;20020;-77
2023/08/25 08:27:12;;;;;;;7.47;2.40;;;23.50;99.90;;;;;;5098418;28;20030;-76
2023/08/25 08:29:38;;;;;;;8.15;2.67;;;23.60;99.90;;;;;;5118236;28;20031;-77
2023/08/25 08:32:05;;;;;;;4.57;2.25;;;23.70;99.90;;;;;;5099411;28;20032;-77
2023/08/25 08:34:31;;;;;;;3.38;2.20;;;23.70;99.90;;;;;;5118338;28;20055;-77
2023/08/25 08:36:57;;;;;;;6.07;2.25;;;23.80;99.90;;;;;;5099518;28;20478;-77
2023/08/25 08:39:23;;;;;;;6.07;2.50;;;23.90;99.90;;;;;;5118008;28;20375;-77
2023/08/25 08:41:52;;;;;;;9.90;2.78;;;23.90;99.90;;;;;;5118127;28;20026;-77
2023/08/25 08:44:19;;;;;;;5.88;3.05;;;24.00;99.90;;;;;;5099073;28;20503;-77
2023/08/25 08:46:48;;;;;;;8.13;2.90;;;24.10;99.90;;;;;;5117612;28;20080;-77
2023/08/25 08:49:14;;;;;;;9.98;2.63;;;24.20;99.90;;;;;;5098366;28;20440;-77
2023/08/25 08:51:45;;;;;;;5.93;2.15;;;24.20;99.90;;;;;;5116658;28;20035;-77
2023/08/25 08:54:11;;;;;;;6.93;2.72;;;24.30;99.90;;;;;;5098930;28;20413;-77
2023/08/25 08:56:37;;;;;;;8.00;3.35;;;24.40;99.90;;;;;;5117249;28;20396;-76
2023/08/25 08:59:03;;;;;;;8.07;3.35;;;24.40;99.90;;;;;;5116762;28;20670;-76
2023/08/25 09:01:31;;;;;;;5.25;2.60;;;24.40;99.90;;;;;;5098304;28;20027;-77
2023/08/25 09:04:00;;;;;;;7.35;2.70;;;24.60;99.90;;;;;;5116512;28;20027;-76
2023/08/25 09:06:31;;;;;;;8.88;2.63;;;24.70;99.90;;;;;;5098336;28;20039;-76
2023/08/25 09:09:04;;;;;;;4.90;2.55;;;24.90;99.90;;;;;;5116429;28;20058;-76
2023/08/25 09:11:30;;;;;;;6.57;2.70;;;25.00;99.90;;;;;;5116526;28;20475;-76
2023/08/25 09:13:57;;;;;;;4.53;2.25;;;25.20;99.90;;;;;;5098264;28;20032;-76
2023/08/25 09:16:23;;;;;;;6.13;2.28;;;25.40;99.90;;;;;;5116098;28;20360;-76
2023/08/25 09:18:49;;;;;;;4.90;2.47;;;25.50;99.90;;;;;;5116932;28;20031;-76
2023/08/25 09:21:16;;;;;;;5.05;2.42;;;25.70;99.90;;;;;;5117178;28;20032;-76
2023/08/25 09:23:59;;;;;;;4.85;2.20;;;25.80;99.90;;;;;;5097958;28;20028;-76
2023/08/25 09:26:26;;;;;;;7.93;2.63;;;25.80;99.90;;;;;;5116084;28;20037;-76
2023/08/25 09:28:53;;;;;;;5.85;2.50;;;26.00;99.90;;;;;;5116070;28;20035;-76
2023/08/25 09:31:25;;;;;;;7.40;2.45;;;26.20;99.90;;;;;;5098167;28;20023;-76
2023/08/25 09:33:52;;;;;;;9.23;2.92;;;26.30;99.90;;;;;;5115917;28;20034;-76
2023/08/25 09:36:18;;;;;;;6.95;2.65;;;26.50;99.90;;;;;;5115881;28;20034;-76
2023/08/25 09:38:46;;;;;;;8.85;3.05;;;26.60;99.90;;;;;;5115494;28;20028;-76
2023/08/25 09:41:12;;;;;;;6.07;2.85;;;26.70;99.90;;;;;;5116042;28;20016;-76
2023/08/25 09:43:40;;;;;;;5.50;2.90;;;26.90;99.90;;;;;;5097793;28;20035;-76
2023/08/25 09:46:08;;;;;;;5.55;2.63;;;27.00;99.90;;;;;;5115712;28;20034;-76
2023/08/25 09:48:36;;;;;;;8.63;3.20;;;27.10;99.90;;;;;;5115583;28;20050;-76
2023/08/25 09:51:06;;;;;;;5.95;2.85;;;27.10;99.90;;;;;;5097725;28;20024;-76
2023/08/25 09:53:33;;;;;;;6.05;2.80;;;27.20;99.90;;;;;;5116001;28;20031;-76
2023/08/25 09:56:05;;;;;;;6.80;2.63;;;27.30;99.90;;;;;;5097886;28;20112;-76
2023/08/25 09:58:30;;;;;;;5.75;2.45;;;27.30;99.90;;;;;;5098335;28;20024;-76
2023/08/25 10:00:58;;;;;;;5.40;2.80;;;27.30;99.90;;;;;;5116330;28;20023;-76
2023/08/25 10:03:24;;;;;;;4.82;2.28;;;27.30;99.90;;;;;;5097308;28;20105;-76
2023/08/25 10:05:50;;;;;;;5.22;2.78;;;27.40;99.90;;;;;;5115581;28;20023;-76
2023/08/25 10:08:16;;;;;;;6.47;2.83;;;27.50;99.90;;;;;;5115372;28;20020;-76
2023/08/25 10:10:44;;;;;;;5.35;2.60;;;27.60;99.90;;;;;;5115381;28;20024;-76
2023/08/25 10:13:14;;;;;;;5.65;2.40;;;27.70;99.90;;;;;;5115058;28;20098;-76
2023/08/25 10:15:45;;;;;;;6.13;2.40;;;27.70;99.90;;;;;;5115053;28;20030;-75
2023/08/25 10:18:12;;;;;;;7.43;2.50;;;27.80;98.50;;;;;;5115047;28;20023;-76
2023/08/25 10:20:39;;;;;;;6.57;2.28;;;27.90;99.90;;;;;;5114883;28;20024;-75
2023/08/25 10:23:07;;;;;;;5.75;2.30;;;28.10;99.00;;;;;;5115308;28;20020;-76
2023/08/25 10:25:33;;;;;;;6.25;2.45;;;28.20;98.10;;;;;;5114846;28;20011;-76
2023/08/25 10:28:01;;;;;;;7.60;2.42;;;28.40;97.70;;;;;;5115422;28;20035;-76
2023/08/25 10:30:27;;;;;;;6.47;2.28;;;28.50;96.70;;;;;;5079351;28;20039;-76
2023/08/25 10:33:08;;;;;;;6.85;2.30;;;28.60;96.80;;;;;;5114737;28;20111;-76
2023/08/25 10:35:44;;;;;;;7.00;2.42;;;28.80;98.20;;;;;;5114630;28;20027;-76
2023/08/25 10:38:19;;;;;;;4.65;2.05;;;28.90;96.60;;;;;;5114674;28;20023;-76
2023/08/25 10:40:55;;;;;;;4.03;2.08;;;29.00;96.80;;;;;;5114401;28;20023;-76
2023/08/25 10:43:25;;;;;;;5.85;2.47;;;29.20;94.60;;;;;;5114640;28;20027;-74
2023/08/25 10:45:52;;;;;;;;;;;29.10;91.80;;;;;;5114773;28;20098;-76
2023/08/25 10:48:19;;;;;;;4.28;2.20;;;29.00;92.70;;;;;;5114404;28;19907;-76
2023/08/25 10:50:45;;;;;;;5.50;2.30;;;28.70;92.00;;;;;;5113722;28;20039;-75
2023/08/25 10:53:44;;;;;;;6.32;2.75;;;28.50;92.20;;;;;;5114142;28;20027;-76
2023/08/25 10:56:21;;;;;;;6.22;3.00;;;28.20;91.40;;;;;;5095838;28;20513;-76
2023/08/25 10:58:59;;;;;;;5.05;2.15;;;28.00;91.00;;;;;;5114163;28;20020;-76
2023/08/25 11:01:58;;;;;;;4.53;2.63;;;27.90;92.90;;;;;;5114231;28;20051;-76
2023/08/25 11:04:29;;;;;;;4.10;2.20;;;27.90;91.60;;;;;;5105777;28;20175;-75
2023/08/25 11:06:59;;;;;;;3.50;2.17;;;27.90;92.10;;;;;;5114451;28;20015;-74
2023/08/25 11:09:24;;;;;;;4.32;2.42;;;27.80;91.00;;;;;;5113699;28;20455;-74
2023/08/25 11:12:03;;;;;;;4.90;2.67;;;27.80;91.80;;;;;;5114344;28;20064;-75
2023/08/25 11:14:34;;;;;;;7.78;2.92;;;27.80;91.20;;;;;;5114305;28;20088;-75
2023/08/25 11:17:10;;;;;;;5.40;2.58;;;27.70;91.30;;;;;;5117254;28;20083;-79
2023/08/25 11:19:38;;;;;;;3.95;2.30;;;27.60;91.30;;;;;;5096488;28;20016;-75
2023/08/25 11:22:08;;;;;;;4.70;2.25;;;27.60;91.40;;;;;;5113910;28;20430;-75
2023/08/25 11:24:33;;;;;;;5.38;2.38;;;27.50;90.80;;;;;;5114215;28;20015;-76
2023/08/25 11:27:09;;;;;;;5.13;2.58;;;27.50;91.10;;;;;;5114479;28;20533;-76
2023/08/25 11:29:35;;;;;;;4.38;2.30;;;27.60;91.30;;;;;;5113841;28;20567;-75
2023/08/25 11:32:02;;;;;;;3.83;2.15;;;27.60;90.00;;;;;;5113828;28;20106;-75
2023/08/25 11:34:34;;;;;;;4.53;2.38;;;27.50;89.90;;;;;;5113727;28;20476;-75
2023/08/25 11:37:00;;;;;;;3.22;2.28;;;27.50;90.20;;;;;;5113762;28;20104;-75
2023/08/25 11:39:26;;;;;;;3.65;2.05;;;27.50;89.00;;;;;;5113784;28;20027;-74
2023/08/25 11:41:58;;;;;;;5.20;2.70;;;27.50;90.80;;;;;;5095607;28;20023;-75
2023/08/25 11:44:25;;;;;;;3.92;2.30;;;27.50;88.70;;;;;;5114045;28;20042;-74
2023/08/25 11:46:54;;;;;;;4.72;2.83;;;27.50;88.80;;;;;;5114190;28;20024;-73
2023/08/25 11:49:20;;;;;;;5.63;2.40;;;27.50;88.60;;;;;;5113628;28;20030;-73
2023/08/25 11:51:48;;;;;;;5.15;2.38;;;27.50;87.50;;;;;;5113787;28;20031;-74
2023/08/25 11:54:14;;;;;;;5.07;2.55;;;27.60;89.60;;;;;;5113516;28;20036;-73
2023/08/25 11:56:48;;;;;;;4.18;2.47;;;27.70;90.40;;;;;;5113455;28;20042;-73
2023/08/25 11:59:17;;;;;;;4.13;2.50;;;27.70;88.70;;;;;;5096641;28;20035;-72
2023/08/25 12:01:42;;;;;;;3.97;2.33;;;27.80;88.10;;;;;;5097051;28;20068;-72
2023/08/25 12:04:25;;;;;;;4.20;2.38;;;27.80;88.80;;;;;;5117776;28;20024;-73
2023/08/25 12:06:55;;;;;;;4.07;2.53;;;27.90;86.80;;;;;;5118053;28;20024;-74
2023/08/25 12:09:24;;;;;;;6.23;2.60;;;28.00;87.70;;;;;;5117718;28;20103;-74
2023/08/25 12:11:53;;;;;;;4.25;2.33;;;28.10;87.10;;;;;;5118030;28;20032;-74
2023/08/25 12:14:29;;;;;;;5.53;2.50;;;28.20;87.00;;;;;;5117520;28;20061;-74
2023/08/25 12:16:56;;;;;;;4.85;2.40;;;28.20;88.50;;;;;;5117484;28;20388;-74
2023/08/25 12:19:24;;;;;;;4.53;2.40;;;28.30;88.80;;;;;;5117160;28;20042;-74
2023/08/25 12:21:54;;;;;;;3.58;2.20;;;28.50;86.20;;;;;;5117456;28;20023;-75
2023/08/25 12:24:20;;;;;;;5.03;2.60;;;28.60;87.90;;;;;;5098886;28;20392;-74
2023/08/25 12:26:46;;;;;;;5.38;2.63;;;28.70;87.80;;;;;;5117156;28;20034;-74
2023/08/25 12:29:12;;;;;;;4.18;2.78;;;28.80;86.50;;;;;;5117019;28;20032;-74
2023/08/25 12:31:37;;;;;;;3.60;2.70;;;28.80;85.00;;;;;;5117108;28;20053;-75
2023/08/25 12:34:03;;;;;;;8.32;2.90;;;28.80;85.70;;;;;;5117223;28;20027;-74
2023/08/25 12:36:29;;;;;;;5.78;2.50;;;28.80;84.70;;;;;;5116913;28;20379;-74
2023/08/25 12:38:55;;;;;;;5.38;2.83;;;28.90;82.90;;;;;;5117265;28;20023;-74
2023/08/25 12:41:20;;;;;;;4.95;2.33;;;28.90;83.20;;;;;;5098663;28;20019;-74
2023/08/25 12:43:46;;;;;;;4.60;2.78;;;28.80;82.70;;;;;;5116842;28;20027;-74
2023/08/25 12:46:12;;;;;;;5.22;2.88;;;28.80;83.50;;;;;;5117019;28;20036;-73